createdAt,value
2023-02-16T00:01:17.062Z,16.90
2023-02-16T00:03:28.459Z,18.17
2023-02-16T00:05:34.958Z,19.30
2023-02-16T00:07:36.523Z,18.33
2023-02-16T00:09:38.164Z,16.23
2023-02-16T00:12:02.562Z,18.37
2023-02-16T00:14:07.143Z,18.23
2023-02-16T00:16:14.613Z,18.57
2023-02-16T00:18:19.235Z,18.93
2023-02-16T00:20:21.037Z,17.10
2023-02-16T00:22:22.575Z,17.73
2023-02-16T00:24:28.885Z,17.00
2023-02-16T00:26:34.149Z,17.73
2023-02-16T00:28:38.474Z,18.63
2023-02-16T00:30:40.261Z,17.80
2023-02-16T00:32:42.215Z,16.33
2023-02-16T00:34:45.545Z,16.70
2023-02-16T00:36:47.076Z,17.97
2023-02-16T00:38:48.685Z,16.53
2023-02-16T00:40:50.431Z,18.33
2023-02-16T00:42:52.323Z,19.10
2023-02-16T00:44:58.759Z,17.50
2023-02-16T00:47:19.955Z,16.70
2023-02-16T00:49:22.876Z,16.57
2023-02-16T00:51:26.283Z,18.40
2023-02-16T00:53:37.316Z,17.67
2023-02-16T00:55:43.626Z,17.70
2023-02-16T00:57:52.032Z,17.13
2023-02-16T01:00:19.792Z,18.00
2023-02-16T01:02:22.637Z,19.57
2023-02-16T01:04:24.542Z,17.87
2023-02-16T01:06:44.734Z,17.70
2023-02-16T01:09:04.612Z,17.33
2023-02-16T01:11:10.292Z,17.83
2023-02-16T01:13:15.420Z,19.20
2023-02-16T01:15:22.502Z,18.10
2023-02-16T01:17:25.353Z,17.47
2023-02-16T01:19:28.880Z,17.00
2023-02-16T01:21:30.460Z,18.40
2023-02-16T01:23:32.047Z,17.63
2023-02-16T01:25:34.191Z,18.57
2023-02-16T01:27:39.709Z,17.33
2023-02-16T01:29:41.425Z,18.07
2023-02-16T01:31:44.180Z,17.60
2023-02-16T01:33:45.906Z,16.97
2023-02-16T01:35:50.200Z,17.03
2023-02-16T01:37:51.970Z,16.40
2023-02-16T01:39:53.485Z,18.50
2023-02-16T01:42:11.731Z,16.67
2023-02-16T01:44:23.526Z,17.40
2023-02-16T01:46:53.122Z,16.90
2023-02-16T01:48:56.617Z,16.97
2023-02-16T01:51:07.278Z,17.10
2023-02-16T01:53:20.937Z,16.40
2023-02-16T01:55:27.435Z,16.60
2023-02-16T01:57:44.818Z,16.97
2023-02-16T01:59:49.971Z,16.10
2023-02-16T02:01:59.884Z,17.77
2023-02-16T02:04:21.322Z,16.30
2023-02-16T02:06:32.872Z,17.27
2023-02-16T02:08:58.458Z,17.63
2023-02-16T02:11:26.102Z,16.90
2023-02-16T02:13:52.425Z,15.87
2023-02-16T02:15:58.569Z,16.37
2023-02-16T02:18:01.563Z,16.47
2023-02-16T02:20:15.419Z,16.30
2023-02-16T02:23:12.772Z,16.70
2023-02-16T02:25:28.263Z,17.30
2023-02-16T02:27:57.444Z,16.30
2023-02-16T02:30:23.074Z,16.57
2023-02-16T02:32:59.479Z,16.43
2023-02-16T02:35:22.794Z,16.83
2023-02-16T02:37:29.766Z,17.33
2023-02-16T02:39:56.716Z,18.03
2023-02-16T02:42:10.865Z,17.10
2023-02-16T02:44:23.986Z,16.83
2023-02-16T02:46:30.530Z,16.80
2023-02-16T02:48:34.602Z,18.43
2023-02-16T02:51:11.220Z,17.27
2023-02-16T02:53:15.920Z,17.67
2023-02-16T02:55:37.656Z,17.80
2023-02-16T02:58:04.050Z,18.07
2023-02-16T03:00:24.785Z,17.70
2023-02-16T03:02:28.765Z,18.13
2023-02-16T03:04:34.116Z,18.07
2023-02-16T03:06:43.899Z,17.60
2023-02-16T03:08:50.118Z,17.27
2023-02-16T03:11:30.592Z,17.20
2023-02-16T03:13:42.373Z,16.27
2023-02-16T03:15:46.938Z,17.77
2023-02-16T03:18:07.776Z,17.40
2023-02-16T03:20:32.424Z,17.07
2023-02-16T03:22:54.355Z,16.77
2023-02-16T03:25:14.405Z,17.43
2023-02-16T03:27:57.256Z,17.47
2023-02-16T03:30:03.417Z,17.10
2023-02-16T03:32:08.135Z,17.07
2023-02-16T03:34:12.692Z,17.63
2023-02-16T03:36:14.503Z,17.10
2023-02-16T03:38:16.508Z,17.37
2023-02-16T03:40:30.942Z,17.80
2023-02-16T03:42:32.707Z,18.53
2023-02-16T03:44:34.359Z,17.33
2023-02-16T03:46:35.956Z,17.13
2023-02-16T03:48:37.560Z,17.63
2023-02-16T03:50:39.269Z,17.23
2023-02-16T03:52:40.958Z,17.00
2023-02-16T03:54:45.546Z,18.33
2023-02-16T03:56:47.011Z,18.10
2023-02-16T03:58:48.483Z,17.27
2023-02-16T04:00:51.222Z,17.70
2023-02-16T04:02:52.885Z,16.90
2023-02-16T04:04:54.607Z,16.80
2023-02-16T04:06:56.192Z,16.00
2023-02-16T04:08:57.889Z,17.17
2023-02-16T04:11:00.374Z,16.27
2023-02-16T04:13:02.202Z,16.07
2023-02-16T04:15:09.067Z,17.10
2023-02-16T04:17:10.634Z,16.10
2023-02-16T04:19:12.202Z,17.37
2023-02-16T04:21:13.694Z,16.50
2023-02-16T04:23:15.264Z,16.33
2023-02-16T04:25:20.901Z,16.87
2023-02-16T04:27:22.736Z,16.53
2023-02-16T04:29:24.291Z,16.67
2023-02-16T04:31:25.954Z,16.67
2023-02-16T04:33:28.199Z,16.90
2023-02-16T04:35:30.126Z,16.77
2023-02-16T04:37:31.777Z,17.97
2023-02-16T04:39:33.499Z,17.00
2023-02-16T04:41:35.011Z,16.87
2023-02-16T04:43:36.787Z,16.67
2023-02-16T04:45:38.313Z,16.23
2023-02-16T04:47:40.396Z,16.33
2023-02-16T04:49:42.136Z,17.07
2023-02-16T04:51:43.779Z,15.83
2023-02-16T04:53:45.421Z,15.47
2023-02-16T04:55:50.781Z,16.33
2023-02-16T04:57:52.485Z,17.53
2023-02-16T05:00:03.037Z,16.93
2023-02-16T05:02:05.038Z,15.33
2023-02-16T05:04:06.815Z,16.27
2023-02-16T05:06:08.516Z,16.10
2023-02-16T05:08:10.235Z,16.37
2023-02-16T05:10:11.851Z,15.03
2023-02-16T05:12:31.998Z,16.53
2023-02-16T05:14:45.478Z,16.50
2023-02-16T05:16:47.210Z,16.90
2023-02-16T05:18:48.866Z,15.40
2023-02-16T05:21:08.878Z,15.90
2023-02-16T05:23:10.514Z,17.70
2023-02-16T05:25:12.294Z,15.80
2023-02-16T05:27:19.865Z,18.60
2023-02-16T05:29:25.770Z,17.67
2023-02-16T05:31:30.095Z,18.07
2023-02-16T05:33:31.814Z,18.17
2023-02-16T05:35:34.965Z,18.33
2023-02-16T05:37:36.674Z,18.03
2023-02-16T05:39:38.416Z,17.50
2023-02-16T05:41:40.057Z,17.67
2023-02-16T05:43:41.692Z,17.10
2023-02-16T05:45:43.475Z,17.27
2023-02-16T05:47:47.167Z,16.57
2023-02-16T05:49:51.462Z,16.47
2023-02-16T05:51:53.167Z,17.27
2023-02-16T05:53:55.883Z,16.03
2023-02-16T05:55:57.615Z,15.17
2023-02-16T05:57:59.307Z,15.50
2023-02-16T06:00:01.182Z,15.47
2023-02-16T06:02:02.726Z,14.77
2023-02-16T06:04:04.892Z,15.20
2023-02-16T06:06:06.772Z,16.20
2023-02-16T06:08:11.721Z,16.10
2023-02-16T06:10:21.060Z,14.93
2023-02-16T06:12:22.703Z,16.37
2023-02-16T06:14:24.428Z,17.67
2023-02-16T06:16:28.077Z,18.20
2023-02-16T06:18:29.682Z,17.53
2023-02-16T06:20:31.459Z,16.50
2023-02-16T06:22:35.896Z,16.60
2023-02-16T06:24:38.560Z,16.27
2023-02-16T06:26:40.307Z,15.50
2023-02-16T06:28:42.605Z,15.10
2023-02-16T06:30:44.368Z,14.53
2023-02-16T06:32:49.328Z,15.10
2023-02-16T06:34:53.753Z,14.67
2023-02-16T06:36:55.462Z,14.10
2023-02-16T06:38:57.227Z,14.57
2023-02-16T06:41:01.004Z,13.97
2023-02-16T06:43:02.929Z,14.50
2023-02-16T06:45:04.943Z,13.60
2023-02-16T06:47:06.709Z,15.50
2023-02-16T06:49:12.599Z,15.20
2023-02-16T06:51:20.358Z,14.83
2023-02-16T06:53:21.892Z,14.37
2023-02-16T06:55:23.593Z,14.77
2023-02-16T06:57:25.126Z,14.50
2023-02-16T06:59:26.771Z,13.73
2023-02-16T07:01:29.109Z,15.43
2023-02-16T07:03:30.673Z,14.03
2023-02-16T07:05:35.436Z,15.40
2023-02-16T07:07:37.029Z,14.73
2023-02-16T07:09:38.700Z,14.37
2023-02-16T07:11:40.863Z,15.20
2023-02-16T07:13:42.710Z,15.20
2023-02-16T07:15:44.425Z,15.27
2023-02-16T07:17:46.131Z,14.47
2023-02-16T07:19:47.688Z,14.30
2023-02-16T07:21:49.395Z,15.30
2023-02-16T07:23:51.124Z,15.23
2023-02-16T07:25:52.779Z,15.20
2023-02-16T07:27:57.030Z,15.70
2023-02-16T07:30:02.032Z,15.50
2023-02-16T07:32:04.354Z,15.87
2023-02-16T07:34:06.073Z,16.00
2023-02-16T07:36:09.185Z,15.00
2023-02-16T07:38:11.108Z,13.87
2023-02-16T07:40:13.412Z,14.67
2023-02-16T07:42:18.072Z,13.73
2023-02-16T07:44:22.290Z,14.23
2023-02-16T07:46:24.314Z,14.33
2023-02-16T07:48:34.789Z,13.97
2023-02-16T07:50:37.571Z,14.17
2023-02-16T07:52:39.448Z,14.90
2023-02-16T07:54:40.992Z,15.07
2023-02-16T07:56:42.729Z,13.97
2023-02-16T07:58:47.454Z,14.20
2023-02-16T08:00:49.154Z,14.30
2023-02-16T08:02:50.875Z,14.23
2023-02-16T08:04:53.490Z,14.60
2023-02-16T08:06:55.088Z,13.27
2023-02-16T08:08:59.316Z,12.93
2023-02-16T08:11:07.805Z,12.67
2023-02-16T08:13:09.452Z,13.47
2023-02-16T08:15:13.543Z,13.70
2023-02-16T08:17:16.192Z,13.67
2023-02-16T08:19:17.731Z,13.50
2023-02-16T08:21:21.907Z,13.90
2023-02-16T08:23:23.665Z,13.17
2023-02-16T08:25:25.778Z,12.03
2023-02-16T08:27:27.612Z,12.37
2023-02-16T08:29:33.577Z,12.50
2023-02-16T08:31:38.430Z,13.90
2023-02-16T08:33:40.562Z,14.57
2023-02-16T08:35:43.106Z,13.33
2023-02-16T08:37:47.528Z,13.93
2023-02-16T08:39:49.276Z,14.30
2023-02-16T08:41:51.139Z,13.33
2023-02-16T08:43:53.197Z,13.60
2023-02-16T08:45:55.001Z,12.57
2023-02-16T08:47:57.688Z,14.27
2023-02-16T08:49:59.083Z,13.60
2023-02-16T08:52:01.777Z,13.37
2023-02-16T08:54:08.715Z,13.87
2023-02-16T08:56:11.168Z,12.97
2023-02-16T08:58:15.788Z,13.40
2023-02-16T09:00:35.528Z,13.67
2023-02-16T09:02:37.814Z,14.27
2023-02-16T09:04:39.332Z,14.70
2023-02-16T09:06:44.537Z,13.47
2023-02-16T09:08:50.446Z,13.10
2023-02-16T09:10:52.498Z,13.40
2023-02-16T09:12:54.552Z,14.90
2023-02-16T09:14:56.078Z,14.13
2023-02-16T09:16:59.231Z,14.63
2023-02-16T09:19:01.790Z,14.20
2023-02-16T09:21:11.875Z,14.27
2023-02-16T09:23:13.469Z,14.77
2023-02-16T09:25:16.938Z,14.17
2023-02-16T09:27:20.197Z,13.97
2023-02-16T09:29:21.917Z,14.00
2023-02-16T09:31:28.826Z,13.45
2023-02-16T09:33:30.478Z,14.00
2023-02-16T09:35:32.776Z,14.13
2023-02-16T09:37:34.375Z,15.13
2023-02-16T09:39:39.662Z,13.70
2023-02-16T09:41:51.551Z,14.20
2023-02-16T09:44:21.004Z,13.43
2023-02-16T09:46:25.268Z,13.70
2023-02-16T09:48:45.852Z,13.60
2023-02-16T09:50:54.596Z,13.88
2023-02-16T09:53:20.420Z,13.55
2023-02-16T09:55:24.999Z,13.18
2023-02-16T09:57:46.928Z,13.07
2023-02-16T10:00:29.425Z,13.15
2023-02-16T10:02:55.386Z,13.27
2023-02-16T10:05:15.202Z,13.90
2023-02-16T10:07:54.168Z,12.52
2023-02-16T10:09:57.555Z,13.35
2023-02-16T10:12:19.564Z,12.40
2023-02-16T10:14:41.604Z,12.77
2023-02-16T10:16:52.793Z,12.85
2023-02-16T10:18:56.368Z,13.00
2023-02-16T10:21:09.349Z,12.55
2023-02-16T10:23:32.955Z,12.52
2023-02-16T10:25:52.513Z,13.18
2023-02-16T10:28:16.225Z,13.90
2023-02-16T10:30:20.949Z,14.45
2023-02-16T10:32:29.102Z,14.65
2023-02-16T10:34:42.811Z,14.30
2023-02-16T10:36:53.800Z,14.18
2023-02-16T10:39:22.197Z,14.43
2023-02-16T10:41:31.837Z,13.32
2023-02-16T10:44:12.103Z,13.95
2023-02-16T10:46:30.955Z,14.63
2023-02-16T10:48:34.246Z,14.57
2023-02-16T10:50:38.849Z,14.60
2023-02-16T10:52:42.509Z,14.07
2023-02-16T10:54:44.282Z,14.77
2023-02-16T10:56:52.645Z,13.25
2023-02-16T10:58:54.893Z,13.13
2023-02-16T11:01:08.456Z,13.25
2023-02-16T11:03:12.797Z,13.27
2023-02-16T11:05:27.235Z,13.07
2023-02-16T11:07:31.364Z,13.65
2023-02-16T11:09:33.094Z,13.02
2023-02-16T11:11:40.113Z,14.00
2023-02-16T11:13:42.007Z,12.45
2023-02-16T11:15:43.841Z,12.40
2023-02-16T11:17:58.213Z,13.35
2023-02-16T11:20:05.754Z,11.63
2023-02-16T11:22:25.954Z,12.30
2023-02-16T11:24:33.041Z,11.80
2023-02-16T11:26:34.590Z,10.43
2023-02-16T11:28:41.066Z,11.93
2023-02-16T11:30:43.389Z,11.52
2023-02-16T11:32:45.151Z,11.70
2023-02-16T11:34:49.885Z,11.18
2023-02-16T11:36:53.201Z,11.07
2023-02-16T11:39:09.295Z,13.75
2023-02-16T11:41:12.830Z,12.00
2023-02-16T11:43:18.479Z,11.20
2023-02-16T11:45:36.581Z,11.00
2023-02-16T11:47:42.090Z,10.90
2023-02-16T11:49:43.566Z,10.90
2023-02-16T11:51:45.128Z,11.27
2023-02-16T11:54:00.434Z,10.30
2023-02-16T11:56:17.256Z,10.32
2023-02-16T11:58:28.376Z,10.85
2023-02-16T12:00:31.763Z,10.82
2023-02-16T12:02:39.388Z,10.52
2023-02-16T12:05:14.565Z,11.43
2023-02-16T12:07:23.199Z,10.70
2023-02-16T12:09:42.916Z,10.68
2023-02-16T12:12:08.296Z,9.60
2023-02-16T12:14:23.970Z,9.82
2023-02-16T12:16:40.641Z,11.15
2023-02-16T12:18:58.466Z,10.40
2023-02-16T12:21:45.454Z,10.35
2023-02-16T12:24:13.929Z,9.32
2023-02-16T12:26:39.483Z,10.07
2023-02-16T12:28:51.102Z,9.68
2023-02-16T12:31:34.980Z,9.43
2023-02-16T12:34:10.214Z,9.40
2023-02-16T12:36:50.602Z,9.40
2023-02-16T12:39:31.207Z,9.73
2023-02-16T12:41:56.049Z,9.95
2023-02-16T12:44:06.614Z,11.70
2023-02-16T12:46:17.601Z,9.65
2023-02-16T12:48:40.323Z,9.18
2023-02-16T12:51:04.967Z,8.68
2023-02-16T12:53:18.692Z,9.30
2023-02-16T12:55:43.141Z,9.05
2023-02-16T12:58:13.805Z,9.27
2023-02-16T13:00:30.899Z,8.52
2023-02-16T13:02:42.517Z,9.10
2023-02-16T13:04:53.902Z,9.65
2023-02-16T13:07:06.184Z,9.55
2023-02-16T13:09:36.350Z,8.25
2023-02-16T13:11:49.341Z,10.80
2023-02-16T13:13:56.864Z,10.07
2023-02-16T13:16:29.159Z,9.00
2023-02-16T13:18:36.046Z,8.70
2023-02-16T13:20:41.360Z,8.43
2023-02-16T13:23:00.775Z,8.95
2023-02-16T13:25:09.976Z,8.02
2023-02-16T13:27:27.738Z,8.77
2023-02-16T13:29:45.288Z,8.32
2023-02-16T13:32:14.762Z,9.07
2023-02-16T13:34:47.522Z,8.70
2023-02-16T13:37:35.912Z,8.40
2023-02-16T13:39:57.681Z,8.25
2023-02-16T13:42:16.533Z,8.65
2023-02-16T13:44:28.214Z,8.55
2023-02-16T13:46:37.950Z,8.48
2023-02-16T13:48:47.355Z,9.45
2023-02-16T13:50:57.470Z,8.02
2023-02-16T13:53:19.181Z,8.18
2023-02-16T13:55:30.158Z,8.57
2023-02-16T13:57:50.432Z,8.05
2023-02-16T14:00:00.774Z,8.68
2023-02-16T14:02:03.512Z,8.55
2023-02-16T14:04:11.765Z,8.90
2023-02-16T14:06:37.989Z,8.70
2023-02-16T14:08:40.389Z,8.80
2023-02-16T14:10:53.082Z,8.75
2023-02-16T14:12:54.878Z,8.98
2023-02-16T14:15:00.679Z,8.90
2023-02-16T14:17:23.469Z,9.40
2023-02-16T14:19:26.681Z,9.23
2023-02-16T14:21:37.761Z,8.60
2023-02-16T14:23:39.522Z,9.65
2023-02-16T14:25:41.344Z,9.73
2023-02-16T14:27:58.800Z,9.27
2023-02-16T14:30:12.612Z,9.27
2023-02-16T14:32:31.433Z,9.05
2023-02-16T14:34:41.310Z,9.13
2023-02-16T14:37:17.141Z,8.48
2023-02-16T14:39:22.825Z,8.73
2023-02-16T14:41:33.681Z,9.52
2023-02-16T14:43:49.012Z,9.77
2023-02-16T14:45:51.053Z,9.85
2023-02-16T14:48:26.797Z,9.65
2023-02-16T14:50:51.044Z,9.15
2023-02-16T14:53:17.555Z,10.15
2023-02-16T14:55:52.022Z,10.15
2023-02-16T14:57:57.210Z,10.88
2023-02-16T15:00:33.725Z,10.85
2023-02-16T15:02:40.824Z,10.40
2023-02-16T15:04:46.089Z,10.57
2023-02-16T15:06:50.731Z,10.07
2023-02-16T15:08:57.094Z,10.55
2023-02-16T15:10:59.532Z,10.98
2023-02-16T15:13:03.417Z,10.48
2023-02-16T15:15:10.255Z,9.75
2023-02-16T15:17:39.486Z,10.20
2023-02-16T15:19:42.194Z,9.32
2023-02-16T15:21:44.722Z,9.68
2023-02-16T15:23:52.198Z,9.50
2023-02-16T15:26:00.060Z,9.65
2023-02-16T15:28:05.595Z,10.10
2023-02-16T15:30:23.248Z,9.25
2023-02-16T15:32:24.945Z,9.52
2023-02-16T15:34:33.304Z,8.80
2023-02-16T15:36:40.328Z,9.48
2023-02-16T15:38:50.983Z,9.63
2023-02-16T15:41:01.818Z,9.43
2023-02-16T15:43:10.043Z,8.82
2023-02-16T15:45:27.158Z,9.65
2023-02-16T15:47:31.008Z,9.25
2023-02-16T15:49:34.901Z,9.23
2023-02-16T15:51:38.410Z,8.98
2023-02-16T15:53:50.647Z,9.63
2023-02-16T15:55:52.605Z,9.43
2023-02-16T15:57:54.445Z,11.43
2023-02-16T16:00:04.013Z,12.32
2023-02-16T16:02:20.885Z,12.65
2023-02-16T16:04:26.375Z,11.95
2023-02-16T16:06:34.190Z,12.15
2023-02-16T16:08:35.932Z,11.85
2023-02-16T16:10:39.857Z,12.05
2023-02-16T16:12:42.180Z,11.15
2023-02-16T16:14:53.264Z,11.75
2023-02-16T16:17:07.140Z,12.10
2023-02-16T16:19:17.600Z,12.88
2023-02-16T16:21:30.899Z,14.55
2023-02-16T16:23:32.787Z,13.90
2023-02-16T16:25:34.511Z,14.25
2023-02-16T16:27:37.348Z,14.77
2023-02-16T16:29:48.208Z,15.20
2023-02-16T16:31:53.549Z,15.43
2023-02-16T16:34:04.066Z,14.55
2023-02-16T16:36:12.568Z,13.98
2023-02-16T16:38:27.894Z,13.52
2023-02-16T16:40:37.777Z,12.95
2023-02-16T16:42:39.483Z,11.93
2023-02-16T16:44:54.284Z,11.23
2023-02-16T16:46:56.061Z,11.18
2023-02-16T16:49:05.556Z,11.68
2023-02-16T16:51:27.785Z,9.50
2023-02-16T16:53:29.442Z,9.70
2023-02-16T16:55:34.122Z,9.32
2023-02-16T16:57:35.732Z,10.18
2023-02-16T16:59:38.724Z,9.60
2023-02-16T17:01:41.648Z,9.30
2023-02-16T17:03:43.420Z,8.95
2023-02-16T17:05:48.602Z,8.55
2023-02-16T17:07:51.773Z,8.48
2023-02-16T17:09:53.530Z,8.82
2023-02-16T17:11:55.720Z,9.75
2023-02-16T17:14:27.029Z,8.23
2023-02-16T17:16:32.827Z,8.43
2023-02-16T17:18:34.651Z,8.18
2023-02-16T17:20:38.953Z,7.70
2023-02-16T17:22:40.609Z,7.78
2023-02-16T17:24:42.908Z,6.68
2023-02-16T17:26:44.586Z,6.72
2023-02-16T17:28:46.028Z,7.07
2023-02-16T17:30:48.050Z,7.03
2023-02-16T17:32:55.826Z,6.90
2023-02-16T17:35:00.086Z,6.43
2023-02-16T17:37:05.502Z,6.18
2023-02-16T17:39:09.646Z,5.43
2023-02-16T17:41:26.493Z,5.72
2023-02-16T17:43:28.537Z,6.38
2023-02-16T17:45:30.203Z,6.13
2023-02-16T17:47:32.168Z,6.63
2023-02-16T17:49:33.772Z,6.35
2023-02-16T17:51:36.537Z,5.82
2023-02-16T17:53:38.276Z,6.05
2023-02-16T17:55:40.099Z,6.28
2023-02-16T17:57:41.917Z,6.97
2023-02-16T17:59:43.557Z,7.80
2023-02-16T18:01:45.628Z,8.90
2023-02-16T18:03:47.816Z,10.23
2023-02-16T18:05:49.985Z,11.10
2023-02-16T18:07:52.242Z,13.90
2023-02-16T18:09:54.710Z,17.02
2023-02-16T18:11:56.472Z,18.95
2023-02-16T18:13:58.031Z,20.85
2023-02-16T18:16:03.817Z,21.75
2023-02-16T18:18:09.081Z,20.77
2023-02-16T18:20:16.030Z,25.48
2023-02-16T18:22:17.830Z,30.20
2023-02-16T18:24:21.182Z,33.95
2023-02-16T18:26:23.678Z,39.22
2023-02-16T18:28:28.240Z,43.13
2023-02-16T18:30:33.173Z,43.15
2023-02-16T18:32:35.148Z,38.70
2023-02-16T18:34:37.481Z,30.63
2023-02-16T18:36:43.570Z,25.98
2023-02-16T18:38:48.084Z,22.40
2023-02-16T18:40:52.163Z,20.30
2023-02-16T18:42:54.025Z,18.27
2023-02-16T18:44:55.701Z,18.38
2023-02-16T18:46:58.056Z,18.73
2023-02-16T18:48:59.722Z,17.17
2023-02-16T18:51:09.711Z,16.23
2023-02-16T18:53:11.487Z,16.27
2023-02-16T18:55:25.139Z,16.25
2023-02-16T18:57:26.984Z,16.05
2023-02-16T18:59:32.949Z,16.55
2023-02-16T19:01:35.035Z,18.60
2023-02-16T19:03:36.848Z,18.63
2023-02-16T19:05:39.915Z,17.70
2023-02-16T19:07:41.766Z,16.25
2023-02-16T19:09:45.915Z,17.33
2023-02-16T19:11:47.689Z,17.42
2023-02-16T19:13:49.492Z,17.10
2023-02-16T19:16:01.632Z,16.58
2023-02-16T19:18:03.569Z,15.88
2023-02-16T19:20:11.556Z,15.35
2023-02-16T19:22:13.984Z,16.45
2023-02-16T19:24:15.567Z,16.70
2023-02-16T19:26:18.939Z,15.80
2023-02-16T19:28:21.455Z,16.17
2023-02-16T19:30:25.732Z,18.08
2023-02-16T19:32:27.399Z,18.27
2023-02-16T19:34:28.986Z,17.80
2023-02-16T19:36:34.277Z,17.77
2023-02-16T19:38:38.410Z,16.85
2023-02-16T19:40:40.111Z,17.13
2023-02-16T19:42:43.523Z,17.00
2023-02-16T19:44:45.131Z,16.63
2023-02-16T19:46:46.767Z,15.50
2023-02-16T19:48:48.813Z,15.50
2023-02-16T19:50:55.836Z,15.90
2023-02-16T19:52:58.538Z,15.68
2023-02-16T19:55:00.142Z,15.10
2023-02-16T19:57:02.909Z,14.18
2023-02-16T19:59:04.460Z,14.43
2023-02-16T20:01:11.454Z,15.13
2023-02-16T20:03:13.776Z,16.45
2023-02-16T20:05:30.862Z,17.73
2023-02-16T20:07:35.941Z,17.75
2023-02-16T20:09:37.619Z,19.55
2023-02-16T20:11:40.180Z,20.40
2023-02-16T20:13:44.598Z,20.15
2023-02-16T20:15:46.346Z,20.73
2023-02-16T20:17:48.053Z,21.98
2023-02-16T20:19:49.755Z,21.17
2023-02-16T20:21:54.683Z,20.83
2023-02-16T20:23:59.962Z,22.30
2023-02-16T20:26:10.570Z,21.45
2023-02-16T20:28:12.189Z,22.38
2023-02-16T20:30:20.403Z,21.05
2023-02-16T20:32:26.608Z,21.35
2023-02-16T20:34:28.297Z,21.50
2023-02-16T20:36:30.114Z,23.55
2023-02-16T20:38:32.853Z,24.25
2023-02-16T20:40:34.506Z,26.10
2023-02-16T20:42:36.187Z,25.58
2023-02-16T20:44:38.158Z,25.38
2023-02-16T20:46:41.165Z,24.83
2023-02-16T20:48:44.003Z,24.25
2023-02-16T20:50:45.693Z,24.45
2023-02-16T20:52:47.494Z,23.27
2023-02-16T20:54:49.046Z,21.48
2023-02-16T20:56:50.726Z,20.83
2023-02-16T20:58:54.237Z,20.70
2023-02-16T21:00:56.086Z,18.80
2023-02-16T21:02:58.053Z,17.98
2023-02-16T21:04:59.957Z,19.63
2023-02-16T21:07:01.684Z,17.10
2023-02-16T21:09:04.864Z,16.70
2023-02-16T21:11:07.531Z,17.05
2023-02-16T21:13:09.475Z,15.93
2023-02-16T21:15:11.666Z,15.70
2023-02-16T21:17:13.598Z,14.68
2023-02-16T21:19:22.799Z,14.75
2023-02-16T21:21:25.396Z,13.13
2023-02-16T21:23:27.626Z,16.33
2023-02-16T21:25:30.299Z,15.13
2023-02-16T21:27:31.963Z,15.82
2023-02-16T21:29:33.699Z,17.23
2023-02-16T21:31:35.465Z,16.00
2023-02-16T21:33:37.738Z,15.50
2023-02-16T21:35:39.458Z,15.38
2023-02-16T21:37:41.227Z,16.27
2023-02-16T21:40:04.193Z,15.98
2023-02-16T21:42:05.860Z,16.60
2023-02-16T21:44:11.204Z,16.13
2023-02-16T21:46:12.946Z,16.83
2023-02-16T21:48:33.320Z,15.90
2023-02-16T21:50:38.086Z,15.00
2023-02-16T21:52:39.769Z,14.48
2023-02-16T21:54:59.736Z,13.98
2023-02-16T21:57:01.461Z,13.23
2023-02-16T21:59:05.295Z,13.40
2023-02-16T22:01:06.963Z,12.70
2023-02-16T22:03:09.596Z,12.15
2023-02-16T22:05:12.397Z,12.07
2023-02-16T22:07:14.254Z,12.32
2023-02-16T22:09:21.642Z,11.57
2023-02-16T22:11:23.377Z,12.05
2023-02-16T22:13:25.020Z,11.65
2023-02-16T22:15:26.455Z,11.95
2023-02-16T22:17:28.135Z,11.60
2023-02-16T22:19:29.934Z,11.15
2023-02-16T22:21:31.828Z,11.75
2023-02-16T22:23:33.955Z,11.50
2023-02-16T22:25:39.935Z,11.90
2023-02-16T22:27:44.784Z,11.40
2023-02-16T22:29:46.399Z,11.70
2023-02-16T22:31:49.263Z,11.95
2023-02-16T22:34:02.864Z,11.13
2023-02-16T22:36:07.172Z,11.32
2023-02-16T22:38:09.045Z,12.32
2023-02-16T22:40:10.691Z,12.32
2023-02-16T22:42:12.449Z,12.30
2023-02-16T22:44:15.629Z,12.48
2023-02-16T22:46:17.537Z,11.98
2023-02-16T22:48:19.226Z,11.55
2023-02-16T22:50:22.884Z,12.43
2023-02-16T22:52:24.665Z,11.27
2023-02-16T22:54:26.224Z,12.25
2023-02-16T22:56:28.389Z,12.70
2023-02-16T22:58:30.078Z,11.90
2023-02-16T23:00:31.866Z,12.88
2023-02-16T23:02:33.576Z,12.95
2023-02-16T23:04:35.094Z,13.63
2023-02-16T23:06:37.102Z,13.88
2023-02-16T23:08:46.339Z,14.23
2023-02-16T23:11:01.328Z,14.25
2023-02-16T23:13:06.198Z,14.60
2023-02-16T23:15:08.066Z,14.98
2023-02-16T23:17:15.446Z,15.25
2023-02-16T23:19:20.586Z,14.95
2023-02-16T23:21:32.941Z,15.40
2023-02-16T23:23:34.771Z,15.75
2023-02-16T23:25:36.351Z,16.98
2023-02-16T23:27:37.973Z,18.33
2023-02-16T23:29:39.463Z,18.70
2023-02-16T23:31:43.329Z,20.05
2023-02-16T23:33:45.249Z,17.45
2023-02-16T23:35:46.816Z,16.17
2023-02-16T23:37:51.487Z,14.02
2023-02-16T23:39:53.091Z,13.50
2023-02-16T23:41:57.551Z,11.55
2023-02-16T23:44:01.074Z,11.55
2023-02-16T23:46:06.724Z,12.50
2023-02-16T23:48:08.605Z,11.95
2023-02-16T23:50:14.407Z,11.30
2023-02-16T23:52:17.298Z,12.07
2023-02-16T23:54:18.933Z,10.80
2023-02-16T23:56:28.065Z,10.43
2023-02-16T23:58:34.033Z,10.38
